createdAt,value
2019-03-04T00:01:48.758Z,94706.45
2019-03-04T00:04:18.115Z,94705.80
2019-03-04T00:06:47.461Z,94703.75
2019-03-04T00:09:16.845Z,94707.16
2019-03-04T00:11:46.205Z,94703.45
2019-03-04T00:14:15.541Z,94697.13
2019-03-04T00:16:44.908Z,94697.19
2019-03-04T00:19:14.265Z,94695.23
2019-03-04T00:21:43.633Z,94688.85
2019-03-04T00:24:13.002Z,94690.02
2019-03-04T00:26:42.396Z,94688.06
2019-03-04T00:29:11.771Z,94686.69
2019-03-04T00:31:41.148Z,94682.96
2019-03-04T00:34:10.654Z,94694.29
2019-03-04T00:36:40.024Z,94683.80
2019-03-04T00:39:11.659Z,94681.27
2019-03-04T00:41:40.990Z,94679.50
2019-03-04T00:44:10.328Z,94681.87
2019-03-04T00:46:39.687Z,94688.38
2019-03-04T00:49:09.063Z,94682.20
2019-03-04T00:51:38.442Z,94684.79
2019-03-04T00:54:07.801Z,94687.00
2019-03-04T00:56:37.169Z,94687.25
2019-03-04T00:59:06.518Z,94683.20
2019-03-04T01:01:35.893Z,94680.77
2019-03-04T01:04:05.377Z,94681.22
2019-03-04T01:06:34.729Z,94679.72
2019-03-04T01:09:04.781Z,94681.47
2019-03-04T01:11:34.137Z,94684.39
2019-03-04T01:14:03.475Z,94671.45
2019-03-04T01:16:32.823Z,94671.34
2019-03-04T01:19:02.204Z,94668.91
2019-03-04T01:21:31.576Z,94669.12
2019-03-04T01:24:00.947Z,94661.22
2019-03-04T01:26:30.304Z,94659.13
2019-03-04T01:28:59.689Z,94662.02
2019-03-04T01:31:29.078Z,94659.13
2019-03-04T01:33:58.408Z,94652.15
2019-03-04T01:36:27.809Z,94651.20
2019-03-04T01:38:57.168Z,94653.75
2019-03-04T01:41:26.635Z,94655.28
2019-03-04T01:43:56.019Z,94651.89
2019-03-04T01:46:25.373Z,94654.58
2019-03-04T01:48:54.749Z,94661.34
2019-03-04T01:51:24.116Z,94656.45
2019-03-04T01:53:53.480Z,94654.25
2019-03-04T01:56:22.852Z,94654.02
2019-03-04T01:58:52.230Z,94651.44
2019-03-04T02:01:21.590Z,94656.10
2019-03-04T02:03:50.958Z,94652.70
2019-03-04T02:06:20.364Z,94657.59
2019-03-04T02:08:49.721Z,94661.80
2019-03-04T02:11:19.061Z,94658.30
2019-03-04T02:13:48.444Z,94660.39
2019-03-04T02:16:17.771Z,94664.02
2019-03-04T02:18:47.148Z,94662.61
2019-03-04T02:21:16.585Z,94659.58
2019-03-04T02:23:45.942Z,94654.70
2019-03-04T02:26:29.571Z,94658.19
2019-03-04T02:28:58.928Z,94654.71
2019-03-04T02:31:28.278Z,94660.53
2019-03-04T02:33:57.633Z,94654.00
2019-03-04T02:36:27.029Z,94662.05
2019-03-04T02:38:56.377Z,94668.90
2019-03-04T02:41:25.733Z,94670.42
2019-03-04T02:43:55.108Z,94660.30
2019-03-04T02:46:24.462Z,94658.18
2019-03-04T02:48:53.817Z,94651.66
2019-03-04T02:51:23.213Z,94650.95
2019-03-04T02:53:52.577Z,94647.34
2019-03-04T02:56:21.951Z,94645.60
2019-03-04T02:58:51.350Z,94636.88
2019-03-04T03:01:20.767Z,94639.34
2019-03-04T03:03:50.296Z,94641.75
2019-03-04T03:06:19.706Z,94637.11
2019-03-04T03:08:49.071Z,94641.65
2019-03-04T03:11:18.480Z,94639.31
2019-03-04T03:13:47.874Z,94635.37
2019-03-04T03:16:17.224Z,94648.41
2019-03-04T03:18:46.642Z,94651.91
2019-03-04T03:21:16.021Z,94649.80
2019-03-04T03:23:45.366Z,94644.32
2019-03-04T03:26:14.720Z,94651.78
2019-03-04T03:28:44.115Z,94648.40
2019-03-04T03:31:13.518Z,94648.63
2019-03-04T03:33:42.925Z,94648.63
2019-03-04T03:36:12.298Z,94645.25
2019-03-04T03:38:41.626Z,94645.03
2019-03-04T03:41:10.994Z,94646.08
2019-03-04T03:43:40.321Z,94641.55
2019-03-04T03:46:09.676Z,94638.62
2019-03-04T03:48:39.056Z,94637.47
2019-03-04T03:51:08.425Z,94640.16
2019-03-04T03:53:37.769Z,94635.95
2019-03-04T03:56:07.144Z,94634.66
2019-03-04T03:58:36.670Z,94635.14
2019-03-04T04:01:06.080Z,94640.48
2019-03-04T04:03:35.486Z,94631.86
2019-03-04T04:06:04.838Z,94637.93
2019-03-04T04:08:34.178Z,94631.73
2019-03-04T04:11:03.549Z,94630.94
2019-03-04T04:13:32.877Z,94635.02
2019-03-04T04:16:02.212Z,94642.80
2019-03-04T04:18:31.552Z,94633.62
2019-03-04T04:21:00.909Z,94637.47
2019-03-04T04:23:30.274Z,94632.42
2019-03-04T04:25:59.685Z,94630.91
2019-03-04T04:28:30.545Z,94627.20
2019-03-04T04:30:59.890Z,94625.77
2019-03-04T04:33:29.258Z,94615.64
2019-03-04T04:35:58.674Z,94619.13
2019-03-04T04:38:28.061Z,94622.02
2019-03-04T04:40:57.450Z,94617.73
2019-03-04T04:43:26.802Z,94617.83
2019-03-04T04:45:56.181Z,94617.25
2019-03-04T04:48:25.950Z,94611.64
2019-03-04T04:50:55.345Z,94614.43
2019-03-04T04:53:24.709Z,94612.70
2019-03-04T04:55:54.038Z,94614.78
2019-03-04T04:58:23.459Z,94620.27
2019-03-04T05:00:52.815Z,94620.39
2019-03-04T05:03:22.200Z,94621.91
2019-03-04T05:05:51.567Z,94616.41
2019-03-04T05:08:20.932Z,94613.53
2019-03-04T05:10:50.307Z,94612.13
2019-03-04T05:13:19.671Z,94607.09
2019-03-04T05:15:49.088Z,94613.50
2019-03-04T05:18:18.521Z,94623.98
2019-03-04T05:20:47.866Z,94619.46
2019-03-04T05:23:17.228Z,94619.23
2019-03-04T05:25:46.597Z,94618.68
2019-03-04T05:28:15.965Z,94621.63
2019-03-04T05:30:45.349Z,94618.82
2019-03-04T05:33:14.732Z,94627.58
2019-03-04T05:35:44.106Z,94624.64
2019-03-04T05:38:13.471Z,94624.31
2019-03-04T05:40:42.872Z,94623.38
2019-03-04T05:43:12.235Z,94633.15
2019-03-04T05:45:41.640Z,94627.56
2019-03-04T05:48:10.993Z,94631.50
2019-03-04T05:50:40.375Z,94630.81
2019-03-04T05:53:09.729Z,94636.41
2019-03-04T05:55:39.096Z,94636.86
2019-03-04T05:58:08.466Z,94636.95
2019-03-04T06:00:40.206Z,94645.67
2019-03-04T06:03:10.294Z,94653.73
2019-03-04T06:05:39.648Z,94654.45
2019-03-04T06:08:09.800Z,94657.45
2019-03-04T06:10:39.151Z,94655.73
2019-03-04T06:13:08.529Z,94655.25
2019-03-04T06:15:37.122Z,94662.60
2019-03-04T06:18:06.509Z,94661.34
2019-03-04T06:20:35.884Z,94661.12
2019-03-04T06:23:05.259Z,94666.25
2019-03-04T06:25:34.625Z,94669.38
2019-03-04T06:28:04.017Z,94674.61
2019-03-04T06:30:33.480Z,94675.16
2019-03-04T06:33:02.856Z,94670.73
2019-03-04T06:35:32.220Z,94678.27
2019-03-04T06:38:01.694Z,94679.43
2019-03-04T06:40:31.099Z,94682.32
2019-03-04T06:43:00.484Z,94676.36
2019-03-04T06:45:29.859Z,94681.10
2019-03-04T06:47:59.217Z,94680.97
2019-03-04T06:51:03.618Z,94682.89
2019-03-04T06:53:54.541Z,94686.55
2019-03-04T06:56:48.207Z,94683.32
2019-03-04T06:59:46.085Z,94687.22
2019-03-04T07:02:15.764Z,94687.52
2019-03-04T07:05:32.907Z,94681.95
2019-03-04T07:08:02.288Z,94691.30
2019-03-04T07:10:32.493Z,94689.37
2019-03-04T07:13:01.875Z,94696.67
2019-03-04T07:15:31.277Z,94690.89
2019-03-04T07:18:00.696Z,94694.67
2019-03-04T07:20:30.055Z,94681.25
2019-03-04T07:22:59.440Z,94681.88
2019-03-04T07:25:28.776Z,94683.73
2019-03-04T07:27:58.136Z,94680.98
2019-03-04T07:30:27.493Z,94677.45
2019-03-04T07:32:56.894Z,94678.70
2019-03-04T07:35:26.252Z,94681.31
2019-03-04T07:38:12.771Z,94674.53
2019-03-04T07:40:42.165Z,94665.55
2019-03-04T07:43:11.544Z,94670.87
2019-03-04T07:45:40.920Z,94665.92
2019-03-04T07:48:10.303Z,94663.81
2019-03-04T07:50:39.687Z,94660.45
2019-03-04T07:53:09.060Z,94670.69
2019-03-04T07:55:38.438Z,94666.34
2019-03-04T07:58:07.810Z,94662.00
2019-03-04T08:00:37.185Z,94662.49
2019-03-04T08:03:06.556Z,94658.89
2019-03-04T08:05:35.964Z,94663.67
2019-03-04T08:08:05.356Z,94653.29
2019-03-04T08:11:01.178Z,94657.86
2019-03-04T08:13:40.384Z,94663.55
2019-03-04T08:16:10.492Z,94657.84
2019-03-04T08:18:39.831Z,94646.42
2019-03-04T08:21:09.220Z,94653.88
2019-03-04T08:23:38.617Z,94640.95
2019-03-04T08:26:08.592Z,94644.71
2019-03-04T08:28:37.959Z,94646.61
2019-03-04T08:31:07.635Z,94643.03
2019-03-04T08:33:37.140Z,94638.66
2019-03-04T08:36:06.586Z,94637.27
2019-03-04T08:38:35.991Z,94630.70
2019-03-04T08:41:05.360Z,94631.25
2019-03-04T08:43:34.827Z,94627.16
2019-03-04T08:46:04.194Z,94622.59
2019-03-04T08:48:33.643Z,94621.28
2019-03-04T08:51:03.036Z,94613.11
2019-03-04T08:53:32.406Z,94617.12
2019-03-04T08:56:01.786Z,94621.08
2019-03-04T08:58:31.134Z,94616.80
2019-03-04T09:01:00.652Z,94616.61
2019-03-04T09:03:30.004Z,94611.73
2019-03-04T09:05:59.388Z,94604.89
2019-03-04T09:08:28.788Z,94607.66
2019-03-04T09:10:58.097Z,94605.32
2019-03-04T09:13:27.569Z,94601.81
2019-03-04T09:15:56.938Z,94601.98
2019-03-04T09:18:26.302Z,94603.44
2019-03-04T09:20:55.692Z,94601.03
2019-03-04T09:23:25.042Z,94596.02
2019-03-04T09:26:03.119Z,94598.77
2019-03-04T09:28:32.559Z,94592.85
2019-03-04T09:31:01.937Z,94584.27
2019-03-04T09:33:31.293Z,94577.97
2019-03-04T09:36:00.670Z,94578.12
2019-03-04T09:38:30.017Z,94579.42
2019-03-04T09:40:59.404Z,94579.84
2019-03-04T09:43:28.819Z,94574.46
2019-03-04T09:45:58.171Z,94573.27
2019-03-04T09:48:27.526Z,94570.27
2019-03-04T09:50:56.945Z,94559.16
2019-03-04T09:53:26.362Z,94558.41
2019-03-04T09:55:55.763Z,94556.46
2019-03-04T09:58:25.123Z,94562.67
2019-03-04T10:01:17.329Z,94553.64
2019-03-04T10:04:27.472Z,94548.41
2019-03-04T10:07:23.714Z,94536.19
2019-03-04T10:10:08.248Z,94535.70
2019-03-04T10:13:30.994Z,94524.60
2019-03-04T10:16:20.264Z,94521.87
2019-03-04T10:19:33.796Z,94516.92
2019-03-04T10:22:12.279Z,94515.53
2019-03-04T10:24:58.166Z,94508.47
2019-03-04T10:28:08.168Z,94508.14
2019-03-04T10:31:06.665Z,94501.03
2019-03-04T10:34:19.942Z,94494.20
2019-03-04T10:37:19.030Z,94494.88
2019-03-04T10:40:16.148Z,94478.17
2019-03-04T10:43:20.583Z,94482.11
2019-03-04T10:46:34.019Z,94471.03
2019-03-04T10:49:03.386Z,94461.11
2019-03-04T10:51:32.734Z,94453.75
2019-03-04T10:54:02.059Z,94452.89
2019-03-04T10:56:31.441Z,94440.12
2019-03-04T10:59:00.764Z,94436.85
2019-03-04T11:01:30.816Z,94439.64
2019-03-04T11:04:00.252Z,94434.88
2019-03-04T11:06:29.596Z,94434.05
2019-03-04T11:08:59.023Z,94426.73
2019-03-04T11:11:30.147Z,94423.08
2019-03-04T11:13:59.429Z,94422.53
2019-03-04T11:16:28.816Z,94415.86
2019-03-04T11:18:58.189Z,94407.00
2019-03-04T11:21:27.546Z,94393.84
2019-03-04T11:23:56.926Z,94396.70
2019-03-04T11:26:26.489Z,94389.84
2019-03-04T11:28:55.832Z,94389.31
2019-03-04T11:31:25.206Z,94388.44
2019-03-04T11:33:54.581Z,94381.03
2019-03-04T11:36:23.915Z,94366.34
2019-03-04T11:38:57.274Z,94369.34
2019-03-04T11:41:26.643Z,94361.34
2019-03-04T11:43:56.021Z,94355.84
2019-03-04T11:46:25.362Z,94353.81
2019-03-04T11:48:54.705Z,94343.80
2019-03-04T11:51:24.078Z,94341.70
2019-03-04T11:53:53.432Z,94338.63
2019-03-04T11:56:22.812Z,94334.75
2019-03-04T11:58:52.127Z,94337.47
2019-03-04T12:01:50.111Z,94318.08
2019-03-04T12:04:19.487Z,94317.23
2019-03-04T12:06:48.840Z,94319.98
2019-03-04T12:09:18.222Z,94311.03
2019-03-04T12:11:47.614Z,94315.13
2019-03-04T12:14:16.985Z,94317.36
2019-03-04T12:16:46.346Z,94293.83
2019-03-04T12:19:15.690Z,94285.17
2019-03-04T12:21:45.016Z,94299.65
2019-03-04T12:24:14.424Z,94295.64
2019-03-04T12:26:43.779Z,94283.25
2019-03-04T12:29:13.133Z,94280.92
2019-03-04T12:31:56.880Z,94272.07
2019-03-04T12:34:26.249Z,94277.62
2019-03-04T12:36:55.611Z,94274.12
2019-03-04T12:39:24.988Z,94260.92
2019-03-04T12:41:54.379Z,94264.76
2019-03-04T12:44:23.737Z,94253.63
2019-03-04T12:46:53.097Z,94253.74
2019-03-04T12:49:22.474Z,94249.14
2019-03-04T12:51:51.892Z,94247.29
2019-03-04T12:54:21.269Z,94245.50
2019-03-04T12:56:50.635Z,94234.36
2019-03-04T12:59:20.010Z,94235.39
2019-03-04T13:01:49.430Z,94237.13
2019-03-04T13:04:18.779Z,94228.23
2019-03-04T13:06:48.012Z,94241.27
2019-03-04T13:09:17.371Z,94225.16
2019-03-04T13:11:46.745Z,94222.00
2019-03-04T13:14:16.099Z,94211.77
2019-03-04T13:16:48.022Z,94216.57
2019-03-04T13:19:20.980Z,94223.56
2019-03-04T13:21:53.299Z,94196.47
2019-03-04T13:24:25.454Z,94201.17
2019-03-04T13:27:00.087Z,94201.39
2019-03-04T13:29:31.922Z,94186.16
2019-03-04T13:32:03.617Z,94187.86
2019-03-04T13:34:35.564Z,94183.11
2019-03-04T13:37:04.946Z,94185.13
2019-03-04T13:39:34.265Z,94187.41
2019-03-04T13:42:03.613Z,94178.37
2019-03-04T13:44:33.107Z,94177.77
2019-03-04T13:47:02.757Z,94174.20
2019-03-04T13:49:32.708Z,94172.02
2019-03-04T13:52:03.026Z,94163.95
2019-03-04T13:54:33.004Z,94177.44
2019-03-04T13:57:03.931Z,94175.12
2019-03-04T13:59:37.263Z,94153.68
2019-03-04T14:02:09.709Z,94143.79
2019-03-04T14:04:41.413Z,94162.03
2019-03-04T14:07:10.987Z,94157.59
2019-03-04T14:09:40.329Z,94165.48
2019-03-04T14:12:10.125Z,94155.69
2019-03-04T14:14:41.701Z,94139.30
2019-03-04T14:17:11.357Z,94135.50
2019-03-04T14:19:40.833Z,94131.41
2019-03-04T14:22:10.437Z,94126.81
2019-03-04T14:24:39.872Z,94128.61
2019-03-04T14:27:09.271Z,94135.93
2019-03-04T14:29:38.798Z,94123.94
2019-03-04T14:32:08.285Z,94118.74
2019-03-04T14:34:37.726Z,94115.69
2019-03-04T14:37:07.063Z,94116.45
2019-03-04T14:39:36.512Z,94104.63
2019-03-04T14:42:06.205Z,94109.16
2019-03-04T14:44:35.563Z,94108.66
2019-03-04T14:47:05.290Z,94104.06
2019-03-04T14:49:44.297Z,94107.16
2019-03-04T14:52:06.041Z,94104.92
2019-03-04T14:54:35.820Z,94102.35
2019-03-04T14:57:05.321Z,94100.95
2019-03-04T14:59:35.304Z,94103.28
2019-03-04T15:02:04.864Z,94098.33
2019-03-04T15:04:34.449Z,94106.78
2019-03-04T15:07:04.053Z,94117.94
2019-03-04T15:09:33.431Z,94104.25
2019-03-04T15:12:02.940Z,94100.02
2019-03-04T15:14:32.274Z,94093.09
2019-03-04T15:17:03.530Z,94088.27
2019-03-04T15:19:32.831Z,94084.88
2019-03-04T15:22:02.435Z,94080.52
2019-03-04T15:24:31.831Z,94076.65
2019-03-04T15:27:01.256Z,94067.63
2019-03-04T15:29:30.748Z,94071.41
2019-03-04T15:32:00.116Z,94067.62
2019-03-04T15:34:29.704Z,94066.23
2019-03-04T15:36:59.286Z,94067.00
2019-03-04T15:39:28.782Z,94063.47
2019-03-04T15:41:58.178Z,94062.30
2019-03-04T15:44:27.720Z,94065.06
2019-03-04T15:46:57.228Z,94055.84
2019-03-04T15:49:26.718Z,94051.08
2019-03-04T15:51:56.124Z,94052.28
2019-03-04T15:54:25.510Z,94057.38
2019-03-04T15:56:55.433Z,94052.22
2019-03-04T15:59:24.997Z,94054.11
2019-03-04T16:01:54.662Z,94054.57
2019-03-04T16:04:24.129Z,94056.87
2019-03-04T16:06:54.504Z,94048.27
2019-03-04T16:09:25.637Z,94058.05
2019-03-04T16:11:55.311Z,94055.49
2019-03-04T16:14:25.032Z,94055.25
2019-03-04T16:16:54.425Z,94042.55
2019-03-04T16:19:23.985Z,94055.46
2019-03-04T16:21:53.330Z,94062.11
2019-03-04T16:24:22.776Z,94064.50
2019-03-04T16:26:52.333Z,94068.77
2019-03-04T16:29:22.078Z,94071.34
2019-03-04T16:31:51.558Z,94073.27
2019-03-04T16:34:20.954Z,94069.31
2019-03-04T16:36:51.051Z,94063.09
2019-03-04T16:39:21.334Z,94063.56
2019-03-04T16:41:51.120Z,94066.77
2019-03-04T16:44:21.192Z,94060.22
2019-03-04T16:46:50.677Z,94067.69
2019-03-04T16:49:20.378Z,94061.36
2019-03-04T16:51:50.123Z,94059.31
2019-03-04T16:54:19.663Z,94056.67
2019-03-04T16:56:49.024Z,94054.11
2019-03-04T16:59:18.626Z,94053.97
2019-03-04T17:01:48.016Z,94054.10
2019-03-04T17:04:17.571Z,94054.45
2019-03-04T17:06:47.643Z,94052.97
2019-03-04T17:09:19.257Z,94056.11
2019-03-04T17:11:48.867Z,94059.24
2019-03-04T17:14:19.606Z,94058.98
2019-03-04T17:16:49.263Z,94060.93
2019-03-04T17:19:19.066Z,94059.93
2019-03-04T17:21:48.673Z,94056.34
2019-03-04T17:24:18.042Z,94053.09
2019-03-04T17:26:47.548Z,94054.27
2019-03-04T17:29:18.092Z,94049.96
2019-03-04T17:31:47.825Z,94054.31
2019-03-04T17:34:17.424Z,94049.21
2019-03-04T17:36:47.027Z,94051.25
2019-03-04T17:39:18.037Z,94052.88
2019-03-04T17:41:47.678Z,94060.36
2019-03-04T17:44:22.410Z,94059.06
2019-03-04T17:46:52.088Z,94064.48
2019-03-04T17:49:21.631Z,94058.86
2019-03-04T17:51:51.258Z,94065.34
2019-03-04T17:54:20.732Z,94070.55
2019-03-04T17:56:50.159Z,94075.76
2019-03-04T17:59:19.563Z,94081.66
2019-03-04T18:01:48.955Z,94076.45
2019-03-04T18:04:18.335Z,94081.84
2019-03-04T18:06:47.857Z,94082.95
2019-03-04T18:09:17.359Z,94082.42
2019-03-04T18:11:46.724Z,94082.50
2019-03-04T18:14:16.245Z,94091.22
2019-03-04T18:16:45.729Z,94101.66
2019-03-04T18:19:15.175Z,94101.41
2019-03-04T18:21:44.541Z,94100.84
2019-03-04T18:24:14.053Z,94101.81
2019-03-04T18:27:13.464Z,94094.11
2019-03-04T18:30:09.370Z,94090.20
2019-03-04T18:33:14.487Z,94093.69
2019-03-04T18:36:15.643Z,94093.23
2019-03-04T18:39:12.831Z,94093.08
2019-03-04T18:42:20.674Z,94090.00
2019-03-04T18:45:48.937Z,94089.64
2019-03-04T18:48:41.856Z,94101.61
2019-03-04T18:51:11.562Z,94107.16
2019-03-04T18:53:40.944Z,94091.93
2019-03-04T18:56:10.360Z,94094.16
2019-03-04T18:58:39.802Z,94082.95
2019-03-04T19:01:09.315Z,94094.67
2019-03-04T19:03:38.743Z,94095.20
2019-03-04T19:06:09.052Z,94091.45
2019-03-04T19:08:38.711Z,94097.16
2019-03-04T19:11:08.414Z,94106.20
2019-03-04T19:13:38.272Z,94108.56
2019-03-04T19:16:08.220Z,94103.94
2019-03-04T19:18:37.682Z,94105.17
2019-03-04T19:21:07.368Z,94101.41
2019-03-04T19:23:36.770Z,94101.72
2019-03-04T19:26:06.292Z,94101.34
2019-03-04T19:28:35.935Z,94096.27
2019-03-04T19:31:05.327Z,94099.44
2019-03-04T19:33:34.807Z,94106.27
2019-03-04T19:36:04.192Z,94107.11
2019-03-04T19:38:33.810Z,94095.97
2019-03-04T19:41:03.497Z,94095.81
2019-03-04T19:43:33.339Z,94088.05
2019-03-04T19:46:02.789Z,94086.03
2019-03-04T19:48:32.322Z,94085.95
2019-03-04T19:51:02.287Z,94077.59
2019-03-04T19:53:31.710Z,94080.70
2019-03-04T19:56:01.113Z,94076.63
2019-03-04T19:58:30.579Z,94070.05
2019-03-04T20:01:00.472Z,94083.03
2019-03-04T20:03:30.385Z,94093.22
2019-03-04T20:06:00.373Z,94084.52
2019-03-04T20:08:30.292Z,94088.62
2019-03-04T20:11:00.274Z,94086.28
2019-03-04T20:13:31.243Z,94083.03
2019-03-04T20:16:00.907Z,94091.04
2019-03-04T20:18:31.203Z,94096.22
2019-03-04T20:21:01.830Z,94095.42
2019-03-04T20:23:32.643Z,94088.25
2019-03-04T20:26:02.613Z,94088.94
2019-03-04T20:28:32.433Z,94093.28
2019-03-04T20:31:02.942Z,94089.81
2019-03-04T20:33:32.966Z,94092.72
2019-03-04T20:36:03.127Z,94096.14
2019-03-04T20:38:36.056Z,94088.96
2019-03-04T20:41:06.027Z,94089.28
2019-03-04T20:43:35.720Z,94095.83
2019-03-04T20:46:06.499Z,94092.46
2019-03-04T20:48:36.469Z,94099.11
2019-03-04T20:51:06.961Z,94095.86
2019-03-04T20:53:36.599Z,94091.23
2019-03-04T20:56:06.168Z,94082.34
2019-03-04T20:58:36.496Z,94080.66
2019-03-04T21:01:08.216Z,94088.83
2019-03-04T21:03:38.737Z,94086.42
2019-03-04T21:06:11.959Z,94082.30
2019-03-04T21:08:41.544Z,94082.82
2019-03-04T21:11:12.113Z,94081.25
2019-03-04T21:13:42.939Z,94083.19
2019-03-04T21:16:12.894Z,94080.47
2019-03-04T21:18:42.780Z,94076.27
2019-03-04T21:21:13.173Z,94070.81
2019-03-04T21:23:43.604Z,94065.16
2019-03-04T21:26:28.566Z,94067.22
2019-03-04T21:29:38.071Z,94067.72
2019-03-04T21:32:46.687Z,94078.08
2019-03-04T21:35:51.389Z,94073.55
2019-03-04T21:38:23.329Z,94073.69
2019-03-04T21:41:11.213Z,94079.63
2019-03-04T21:43:45.977Z,94084.81
2019-03-04T21:46:52.011Z,94088.48
2019-03-04T21:49:23.047Z,94087.22
2019-03-04T21:52:20.343Z,94092.27
2019-03-04T21:54:47.927Z,94090.88
2019-03-04T21:57:27.175Z,94099.17
2019-03-04T21:59:56.691Z,94097.89
2019-03-04T22:02:39.655Z,94102.41
2019-03-04T22:05:13.278Z,94095.30
2019-03-04T22:07:43.193Z,94107.22
2019-03-04T22:10:13.518Z,94095.52
2019-03-04T22:12:44.658Z,94084.25
2019-03-04T22:15:14.732Z,94097.84
2019-03-04T22:17:44.232Z,94087.76
2019-03-04T22:20:14.707Z,94097.29
2019-03-04T22:22:44.220Z,94082.27
2019-03-04T22:25:13.990Z,94088.75
2019-03-04T22:27:43.357Z,94087.49
2019-03-04T22:30:15.122Z,94086.98
2019-03-04T22:32:44.642Z,94097.53
2019-03-04T22:35:17.053Z,94100.29
2019-03-04T22:37:46.065Z,94105.62
2019-03-04T22:40:17.226Z,94100.60
2019-03-04T22:42:46.576Z,94105.48
2019-03-04T22:45:17.629Z,94111.62
2019-03-04T22:47:47.396Z,94118.56
2019-03-04T22:50:17.303Z,94125.71
2019-03-04T22:52:46.685Z,94124.89
2019-03-04T22:55:18.637Z,94122.16
2019-03-04T22:57:48.024Z,94118.59
2019-03-04T23:01:16.218Z,94117.95
2019-03-04T23:03:45.972Z,94117.00
2019-03-04T23:06:18.750Z,94118.44
2019-03-04T23:08:48.165Z,94124.44
2019-03-04T23:11:17.797Z,94116.52
2019-03-04T23:13:56.581Z,94119.58
2019-03-04T23:16:28.528Z,94115.21
2019-03-04T23:18:57.930Z,94106.82
2019-03-04T23:21:27.298Z,94110.86
2019-03-04T23:23:56.673Z,94111.17
2019-03-04T23:26:26.275Z,94116.52
2019-03-04T23:28:55.630Z,94111.78
2019-03-04T23:31:24.987Z,94119.55
2019-03-04T23:33:54.333Z,94109.87
2019-03-04T23:36:23.707Z,94124.36
2019-03-04T23:38:53.038Z,94112.45
2019-03-04T23:41:22.392Z,94120.38
2019-03-04T23:43:51.768Z,94126.20
2019-03-04T23:46:21.127Z,94121.15
2019-03-04T23:48:50.481Z,94127.63
2019-03-04T23:51:19.807Z,94128.78
2019-03-04T23:53:49.170Z,94133.78
2019-03-04T23:56:18.537Z,94133.95
2019-03-04T23:58:47.915Z,94129.72
